^^
Saratoga-Weather Station Historical Data
Daily Summary for February 12, 2021 Units:  Metric    English   Both
Daily Weekly Monthly Yearly Custom
  High: Low: Average:
Temperature: 20.7 °C 14.1 °C 17.7 °C
Dew Point: 18.5 °C 13.1 °C 15.7 °C
Humidity: 94% 77% 88%
Wind Speed: 9.7km/h 0km/h 0.8km/h
Wind Gust: 11.3km/h - -
Wind- - SSW
Pressure: 1013.2 hPa 1007.8 hPa -
Precipitation: 0.8 mm    
Historical Graphs
 
 
Tabular Data for February 12, 2021
Time Temperature Dew Point Pressure Wind Wind Speed Wind Gust Humidity Rainfall Rate (Hourly) solar
00:01 16.1 °C 14.5 °C 1013.2 hPa Calm     90% 0.0 mm 0 W/m2
00:06 15.9 °C 14.3 °C 1013.2 hPa Calm     90% 0.0 mm 0 W/m2
00:11 15.9 °C 14.3 °C 1013.2 hPa Calm     90% 0.0 mm 0 W/m2
00:16 15.8 °C 14.2 °C 1013.2 hPa Calm     90% 0.0 mm 0 W/m2
00:21 15.8 °C 14.3 °C 1013.2 hPa Calm     91% 0.0 mm 0 W/m2
00:26 15.7 °C 14.2 °C 1013.2 hPa Calm     91% 0.0 mm 0 W/m2
00:31 15.7 °C 14.2 °C 1012.9 hPa Calm     91% 0.0 mm 0 W/m2
00:36 15.7 °C 14.4 °C 1012.9 hPa Calm     92% 0.0 mm 0 W/m2
00:41 15.6 °C 14.3 °C 1012.9 hPa Calm     92% 0.0 mm 0 W/m2
00:46 15.6 °C 14.1 °C 1012.9 hPa Calm     91% 0.0 mm 0 W/m2
00:51 15.5 °C 14.2 °C 1012.9 hPa Calm     92% 0.0 mm 0 W/m2
00:56 15.4 °C 14.1 °C 1012.9 hPa Calm     92% 0.0 mm 0 W/m2
01:01 15.4 °C 14.1 °C 1012.9 hPa Calm     92% 0.0 mm 0 W/m2
01:06 15.3 °C 14 °C 1012.9 hPa Calm     92% 0.0 mm 0 W/m2
01:11 15.3 °C 14 °C 1012.9 hPa Calm     92% 0.0 mm 0 W/m2
01:16 15.2 °C 13.9 °C 1012.9 hPa Calm     92% 0.0 mm 0 W/m2
01:21 15.2 °C 13.9 °C 1012.9 hPa Calm     92% 0.0 mm 0 W/m2
01:26 15.2 °C 14.1 °C 1012.5 hPa Calm     93% 0.0 mm 0 W/m2
01:31 15.2 °C 14.1 °C 1012.5 hPa SW 1.4 km/h 1.6 km/h 93% 0.0 mm 0 W/m2
01:36 15.2 °C 14.1 °C 1012.5 hPa SW 1.4 km/h 1.6 km/h 93% 0.0 mm 0 W/m2
01:41 15.2 °C 14.1 °C 1012.5 hPa Calm     93% 0.0 mm 0 W/m2
01:46 15.2 °C 14.1 °C 1012.5 hPa Calm     93% 0.0 mm 0 W/m2
01:51 15.2 °C 14.1 °C 1012.5 hPa Calm     93% 0.0 mm 0 W/m2
01:56 15.2 °C 14.1 °C 1012.5 hPa Calm     93% 0.0 mm 0 W/m2
02:01 15.2 °C 14.1 °C 1012.9 hPa Calm     93% 0.0 mm 0 W/m2
02:06 15.2 °C 14.1 °C 1012.5 hPa Calm     93% 0.0 mm 0 W/m2
02:11 15.2 °C 14.1 °C 1012.5 hPa Calm     93% 0.0 mm 0 W/m2
02:16 15.2 °C 14.1 °C 1012.5 hPa Calm     93% 0.0 mm 0 W/m2
02:21 15.1 °C 14 °C 1012.5 hPa Calm     93% 0.0 mm 0 W/m2
02:26 15.1 °C 14 °C 1012.5 hPa Calm     93% 0.0 mm 0 W/m2
02:31 15.1 °C 14 °C 1012.5 hPa Calm     93% 0.0 mm 0 W/m2
02:36 15 °C 13.9 °C 1012.2 hPa Calm   1.6 km/h 93% 0.0 mm 0 W/m2
02:41 15 °C 13.9 °C 1012.2 hPa SW 1.4 km/h 1.6 km/h 93% 0.0 mm 0 W/m2
02:46 15 °C 13.9 °C 1012.2 hPa Calm     93% 0.0 mm 0 W/m2
02:51 14.9 °C 13.8 °C 1012.2 hPa Calm     93% 0.0 mm 0 W/m2
02:56 14.9 °C 13.8 °C 1012.2 hPa Calm     93% 0.0 mm 0 W/m2
03:01 14.8 °C 13.7 °C 1012.2 hPa Calm     93% 0.0 mm 0 W/m2
03:06 14.8 °C 13.7 °C 1012.2 hPa Calm     93% 0.0 mm 0 W/m2
03:11 14.8 °C 13.7 °C 1012.2 hPa Calm     93% 0.0 mm 0 W/m2
03:16 14.8 °C 13.7 °C 1011.9 hPa Calm     93% 0.0 mm 0 W/m2
03:21 14.8 °C 13.7 °C 1011.9 hPa Calm     93% 0.0 mm 0 W/m2
03:26 14.7 °C 13.6 °C 1011.9 hPa Calm     93% 0.0 mm 0 W/m2
03:31 14.7 °C 13.6 °C 1011.9 hPa Calm     93% 0.0 mm 0 W/m2
03:36 14.7 °C 13.6 °C 1012.2 hPa Calm     93% 0.0 mm 0 W/m2
03:42 14.7 °C 13.6 °C 1012.2 hPa Calm     93% 0.0 mm 0 W/m2
03:47 14.6 °C 13.5 °C 1012.2 hPa Calm     93% 0.0 mm 0 W/m2
03:52 14.6 °C 13.5 °C 1011.9 hPa Calm     93% 0.0 mm 0 W/m2
03:57 14.6 °C 13.5 °C 1011.9 hPa Calm     93% 0.0 mm 0 W/m2
04:02 14.5 °C 13.4 °C 1011.9 hPa Calm     93% 0.0 mm 0 W/m2
04:07 14.4 °C 13.3 °C 1011.9 hPa Calm     93% 0.0 mm 0 W/m2
04:12 14.4 °C 13.3 °C 1011.9 hPa Calm     93% 0.0 mm 0 W/m2
04:17 14.4 °C 13.3 °C 1011.9 hPa Calm     93% 0.0 mm 0 W/m2
04:22 14.3 °C 13.2 °C 1011.9 hPa Calm     93% 0.0 mm 0 W/m2
04:27 14.3 °C 13.2 °C 1011.5 hPa SW 1.6 km/h 1.6 km/h 93% 0.0 mm 0 W/m2
04:32 14.3 °C 13.3 °C 1011.5 hPa Calm     94% 0.0 mm 0 W/m2
04:37 14.3 °C 13.3 °C 1011.5 hPa Calm     94% 0.0 mm 0 W/m2
04:42 14.3 °C 13.3 °C 1011.5 hPa Calm     94% 0.0 mm 0 W/m2
04:47 14.3 °C 13.3 °C 1011.5 hPa Calm     94% 0.0 mm 0 W/m2
04:52 14.2 °C 13.2 °C 1011.5 hPa Calm   1.6 km/h 94% 0.0 mm 0 W/m2
04:57 14.2 °C 13.2 °C 1011.2 hPa Calm     94% 0.0 mm 0 W/m2
05:02 14.2 °C 13.2 °C 1011.2 hPa Calm     94% 0.0 mm 0 W/m2
05:07 14.2 °C 13.2 °C 1011.2 hPa Calm     94% 0.0 mm 0 W/m2
05:12 14.2 °C 13.2 °C 1011.2 hPa Calm     94% 0.0 mm 0 W/m2
05:17 14.1 °C 13.1 °C 1010.8 hPa Calm     94% 0.0 mm 0 W/m2
05:22 14.1 °C 13.1 °C 1010.8 hPa Calm     94% 0.0 mm 0 W/m2
05:27 14.1 °C 13.1 °C 1010.8 hPa Calm     94% 0.0 mm 0 W/m2
05:32 14.1 °C 13.1 °C 1010.8 hPa SSW 3.2 km/h 4.8 km/h 94% 0.0 mm 0 W/m2
05:37 14.2 °C 13.2 °C 1010.8 hPa SW 1.4 km/h 1.6 km/h 94% 0.0 mm 0 W/m2
05:42 14.2 °C 13.2 °C 1010.8 hPa SW 1.4 km/h 4.8 km/h 94% 0.0 mm 0 W/m2
05:47 14.2 °C 13.2 °C 1010.5 hPa Calm   1.6 km/h 94% 0.0 mm 0 W/m2
05:52 14.2 °C 13.2 °C 1010.5 hPa Calm     94% 0.0 mm 7 W/m2
05:57 14.2 °C 13.2 °C 1010.8 hPa Calm     94% 0.0 mm 9 W/m2
06:02 14.2 °C 13.2 °C 1010.8 hPa Calm     94% 0.0 mm 12 W/m2
06:07 14.1 °C 13.1 °C 1010.8 hPa Calm     94% 0.0 mm 16 W/m2
06:12 14.2 °C 13.2 °C 1010.8 hPa Calm     94% 0.0 mm 18 W/m2
06:17 14.2 °C 13.2 °C 1010.8 hPa SW 1.4 km/h 3.2 km/h 94% 0.0 mm 21 W/m2
06:22 14.2 °C 13.2 °C 1010.8 hPa Calm   1.6 km/h 94% 0.0 mm 25 W/m2
06:27 14.3 °C 13.3 °C 1010.8 hPa SW 3.2 km/h 3.2 km/h 94% 0.0 mm 28 W/m2
06:32 14.3 °C 13.3 °C 1010.8 hPa Calm   1.6 km/h 94% 0.0 mm 33 W/m2
06:37 14.4 °C 13.4 °C 1010.8 hPa Calm     94% 0.0 mm 37 W/m2
06:42 14.4 °C 13.4 °C 1010.8 hPa Calm     94% 0.0 mm 44 W/m2
06:47 14.6 °C 13.6 °C 1010.8 hPa Calm     94% 0.0 mm 49 W/m2
06:52 14.6 °C 13.6 °C 1010.8 hPa Calm     94% 0.0 mm 51 W/m2
06:57 14.7 °C 13.7 °C 1010.8 hPa ESE 1.4 km/h 4.8 km/h 94% 0.0 mm 49 W/m2
07:02 14.8 °C 13.8 °C 1010.8 hPa Calm     94% 0.0 mm 46 W/m2
07:07 15 °C 13.9 °C 1010.5 hPa ESE 1.4 km/h 4.8 km/h 93% 0.0 mm 40 W/m2
07:12 15.2 °C 14.1 °C 1010.2 hPa ESE 1.4 km/h 1.6 km/h 93% 0.0 mm 39 W/m2
07:17 15.3 °C 14 °C 1010.5 hPa Calm   3.2 km/h 92% 0.0 mm 40 W/m2
07:22 15.3 °C 14 °C 1010.5 hPa Calm     92% 0.0 mm 39 W/m2
07:27 15.4 °C 13.9 °C 1010.2 hPa Calm     91% 0.0 mm 42 W/m2
07:32 15.4 °C 13.9 °C 1010.2 hPa Calm     91% 0.0 mm 49 W/m2
07:37 15.4 °C 13.9 °C 1010.2 hPa Calm     91% 0.0 mm 58 W/m2
07:42 15.5 °C 13.9 °C 1010.2 hPa Calm     90% 0.0 mm 65 W/m2
07:47 15.6 °C 14 °C 1010.2 hPa Calm     90% 0.0 mm 67 W/m2
07:52 15.7 °C 14.1 °C 1010.2 hPa Calm   1.6 km/h 90% 0.0 mm 60 W/m2
07:57 15.7 °C 14.1 °C 1010.2 hPa Calm     90% 0.0 mm 72 W/m2
08:03 15.8 °C 14.2 °C 1010.2 hPa Calm     90% 0.0 mm 93 W/m2
08:08 15.9 °C 14.3 °C 1010.2 hPa Calm     90% 0.0 mm 160 W/m2
08:13 16.1 °C 14.3 °C 1010.2 hPa Calm     89% 0.0 mm 137 W/m2
08:18 16.4 °C 14.4 °C 1009.8 hPa Calm     88% 0.0 mm 158 W/m2
08:23 16.7 °C 14.5 °C 1010.2 hPa Calm     87% 0.0 mm 146 W/m2
08:28 16.9 °C 14.5 °C 1010.2 hPa Calm     86% 0.0 mm 169 W/m2
08:33 17 °C 14.6 °C 1010.2 hPa South 1.4 km/h 3.2 km/h 86% 0.0 mm 193 W/m2
08:38 17.2 °C 14.8 °C 1009.8 hPa ENE 3.2 km/h 4.8 km/h 86% 0.0 mm 186 W/m2
08:43 17.2 °C 14.7 °C 1009.8 hPa Calm   3.2 km/h 85% 0.0 mm 167 W/m2
08:48 17.3 °C 14.6 °C 1009.8 hPa Calm   4.8 km/h 84% 0.0 mm 125 W/m2
08:53 17.3 °C 14.6 °C 1009.5 hPa North 1.4 km/h 1.6 km/h 84% 0.0 mm 120 W/m2
08:58 17.3 °C 14.4 °C 1009.5 hPa NE 3.2 km/h 4.8 km/h 83% 0.0 mm 128 W/m2
09:03 17.3 °C 14.4 °C 1009.5 hPa ENE 1.4 km/h 3.2 km/h 83% 0.0 mm 130 W/m2
09:08 17.3 °C 14.6 °C 1009.1 hPa ENE 1.4 km/h 3.2 km/h 84% 0.0 mm 167 W/m2
09:13 17.4 °C 14.5 °C 1009.1 hPa East 3.2 km/h 6.4 km/h 83% 0.0 mm 186 W/m2
09:18 17.5 °C 14.6 °C 1009.1 hPa SE 4.7 km/h 4.8 km/h 83% 0.0 mm 148 W/m2
09:23 17.6 °C 14.7 °C 1009.1 hPa ENE 1.4 km/h 6.4 km/h 83% 0.0 mm 135 W/m2
09:28 17.7 °C 14.8 °C 1009.1 hPa Calm   3.2 km/h 83% 0.0 mm 134 W/m2
09:33 17.7 °C 14.8 °C 1009.1 hPa NNE 1.4 km/h 3.2 km/h 83% 0.0 mm 162 W/m2
09:38 17.7 °C 14.8 °C 1009.1 hPa WNW 3.2 km/h 3.2 km/h 83% 0.0 mm 186 W/m2
09:43 17.8 °C 14.9 °C 1009.1 hPa NE 1.4 km/h 3.2 km/h 83% 0.0 mm 139 W/m2
09:48 17.8 °C 14.9 °C 1008.8 hPa NE 1.4 km/h 1.6 km/h 83% 0.0 mm 84 W/m2
09:53 17.9 °C 15 °C 1008.5 hPa Calm   3.2 km/h 83% 0.0 mm 70 W/m2
09:58 17.9 °C 15 °C 1008.5 hPa NNE 1.4 km/h 1.6 km/h 83% 0.0 mm 60 W/m2
10:03 17.9 °C 15.2 °C 1008.5 hPa Calm   3.2 km/h 84% 0.0 mm 95 W/m2
10:08 17.9 °C 15.2 °C 1008.5 hPa Calm   1.6 km/h 84% 0.0 mm 162 W/m2
10:13 18 °C 15.4 °C 1008.5 hPa Calm   3.2 km/h 85% 0.0 mm 174 W/m2
10:18 18.1 °C 15.5 °C 1008.5 hPa Calm   3.2 km/h 85% 0.0 mm 158 W/m2
10:23 18.2 °C 15.5 °C 1008.5 hPa Calm   1.6 km/h 84% 0.0 mm 172 W/m2
10:28 18.3 °C 15.5 °C 1008.8 hPa South 1.4 km/h 3.2 km/h 84% 0.0 mm 153 W/m2
10:33 18.4 °C 15.6 °C 1009.1 hPa Calm     84% 0.0 mm 139 W/m2
10:38 18.5 °C 15.7 °C 1009.1 hPa Calm   3.2 km/h 84% 0.0 mm 211 W/m2
10:43 18.7 °C 15.8 °C 1009.1 hPa South 1.4 km/h 1.6 km/h 83% 0.0 mm 237 W/m2
10:48 18.8 °C 15.9 °C 1009.1 hPa ENE 1.4 km/h 1.6 km/h 83% 0.0 mm 229 W/m2
10:53 18.9 °C 15.8 °C 1009.1 hPa NE 1.4 km/h 3.2 km/h 82% 0.0 mm 218 W/m2
10:58 19.1 °C 15.8 °C 1009.1 hPa ENE 1.4 km/h 3.2 km/h 81% 0.0 mm 207 W/m2
11:03 19.1 °C 15.8 °C 1008.8 hPa ENE 1.4 km/h 3.2 km/h 81% 0.0 mm 192 W/m2
11:08 19.2 °C 16.1 °C 1008.8 hPa North 1.4 km/h 4.8 km/h 82% 0.0 mm 209 W/m2
11:13 19.2 °C 15.9 °C 1008.8 hPa NE 3.2 km/h 4.8 km/h 81% 0.0 mm 186 W/m2
11:18 19.3 °C 16 °C 1009.1 hPa Calm   3.2 km/h 81% 0.0 mm 104 W/m2
11:23 19.4 °C 16.1 °C 1009.1 hPa Calm   4.8 km/h 81% 0.0 mm 98 W/m2
11:28 19.4 °C 16.2 °C 1009.1 hPa Calm     82% 0.0 mm 100 W/m2
11:33 19.4 °C 16.1 °C 1009.5 hPa Calm     81% 0.0 mm 93 W/m2
11:38 19.4 °C 16.1 °C 1009.5 hPa Calm     81% 0.0 mm 97 W/m2
11:43 19.4 °C 16.2 °C 1009.5 hPa Calm     82% 0.0 mm 95 W/m2
11:48 19.5 °C 16.5 °C 1009.5 hPa Calm     83% 0.0 mm 113 W/m2
11:53 19.5 °C 16.5 °C 1009.5 hPa Calm     83% 0.0 mm 178 W/m2
11:58 19.6 °C 16.4 °C 1009.5 hPa Calm     82% 0.0 mm 195 W/m2
12:03 19.6 °C 16.2 °C 1009.5 hPa Calm   1.6 km/h 81% 0.0 mm 178 W/m2
12:08 19.7 °C 16.2 °C 1009.1 hPa Calm   4.8 km/h 80% 0.0 mm 156 W/m2
12:13 19.8 °C 16.2 °C 1009.1 hPa Calm   1.6 km/h 80% 0.0 mm 202 W/m2
12:18 19.8 °C 16.1 °C 1009.1 hPa Calm   3.2 km/h 79% 0.0 mm 158 W/m2
12:23 19.9 °C 16.1 °C 1009.1 hPa East 1.4 km/h 3.2 km/h 79% 0.0 mm 139 W/m2
12:28 19.9 °C 16.3 °C 1009.1 hPa Calm   3.2 km/h 80% 0.0 mm 113 W/m2
12:33 19.9 °C 16.5 °C 1009.1 hPa Calm   1.6 km/h 81% 0.0 mm 107 W/m2
12:38 19.8 °C 16.4 °C 1009.1 hPa Calm     81% 0.0 mm 132 W/m2
12:48 19.9 °C 16.5 °C 1009.1 hPa ESE 1.4 km/h 1.6 km/h 81% 0.0 mm 139 W/m2
12:53 19.8 °C 16.1 °C 1008.8 hPa ESE 1.4 km/h 3.2 km/h 79% 0.0 mm 142 W/m2
12:58 19.9 °C 16.3 °C 1009.1 hPa Calm     80% 0.0 mm 125 W/m2
13:03 19.9 °C 16.1 °C 1009.1 hPa South 1.4 km/h 3.2 km/h 79% 0.0 mm 130 W/m2
13:08 19.9 °C 15.9 °C 1009.1 hPa NE 4.7 km/h 4.8 km/h 78% 0.0 mm 137 W/m2
13:13 19.9 °C 15.9 °C 1009.1 hPa NNE 1.4 km/h 3.2 km/h 78% 0.0 mm 128 W/m2
13:18 20 °C 15.8 °C 1009.1 hPa ESE 4.7 km/h 6.4 km/h 77% 0.0 mm 153 W/m2
13:23 20.1 °C 16.1 °C 1009.1 hPa Calm   1.6 km/h 78% 0.0 mm 165 W/m2
13:28 20.1 °C 15.9 °C 1009.1 hPa ESE 3.2 km/h 6.4 km/h 77% 0.0 mm 125 W/m2
13:33 20.1 °C 16.1 °C 1008.8 hPa SE 1.4 km/h 1.6 km/h 78% 0.0 mm 146 W/m2
13:38 20.2 °C 16.4 °C 1008.8 hPa Calm   4.8 km/h 79% 0.0 mm 153 W/m2
13:43 20.2 °C 16.6 °C 1008.8 hPa WNW 3.2 km/h 4.8 km/h 80% 0.0 mm 120 W/m2
13:48 20.1 °C 16.5 °C 1008.8 hPa NW 3.2 km/h 4.8 km/h 80% 0.0 mm 109 W/m2
13:54 19.9 °C 16.5 °C 1008.8 hPa NNW 1.4 km/h 9.7 km/h 81% 0.0 mm 153 W/m2
13:59 19.9 °C 16.7 °C 1008.8 hPa NW 1.4 km/h 4.8 km/h 82% 0.0 mm 179 W/m2
14:04 19.9 °C 16.7 °C 1008.8 hPa Calm   1.6 km/h 82% 0.0 mm 134 W/m2
14:09 19.9 °C 16.7 °C 1008.8 hPa ENE 1.4 km/h 4.8 km/h 82% 0.0 mm 142 W/m2
14:14 20 °C 16.8 °C 1008.8 hPa Calm   4.8 km/h 82% 0.0 mm 195 W/m2
14:19 20 °C 17 °C 1008.8 hPa NW 1.4 km/h 3.2 km/h 83% 0.0 mm 178 W/m2
14:24 20.1 °C 17.1 °C 1008.8 hPa SE 1.4 km/h 3.2 km/h 83% 0.0 mm 202 W/m2
14:29 20.1 °C 17.1 °C 1008.8 hPa ESE 3.2 km/h 6.4 km/h 83% 0.0 mm 185 W/m2
14:34 20.1 °C 17.1 °C 1008.8 hPa ENE 1.4 km/h 6.4 km/h 83% 0.0 mm 141 W/m2
14:39 20 °C 17.2 °C 1008.5 hPa NW 4.7 km/h 4.8 km/h 84% 0.0 mm 116 W/m2
14:44 19.8 °C 16.8 °C 1008.5 hPa WNW 3.2 km/h 3.2 km/h 83% 0.0 mm 105 W/m2
14:49 19.7 °C 16.9 °C 1008.5 hPa Calm   3.2 km/h 84% 0.0 mm 128 W/m2
14:54 19.7 °C 17.1 °C 1008.5 hPa NNW 1.4 km/h 4.8 km/h 85% 0.0 mm 179 W/m2
14:59 19.6 °C 17 °C 1008.5 hPa WNW 1.4 km/h 3.2 km/h 85% 0.0 mm 120 W/m2
15:04 19.6 °C 17 °C 1008.8 hPa NNW 1.4 km/h 4.8 km/h 85% 0.0 mm 88 W/m2
15:09 19.5 °C 16.7 °C 1008.8 hPa NNW 1.4 km/h 3.2 km/h 84% 0.0 mm 111 W/m2
15:14 19.6 °C 17 °C 1008.8 hPa WSW 1.4 km/h 4.8 km/h 85% 0.0 mm 135 W/m2
15:19 19.6 °C 17.2 °C 1008.5 hPa Calm   1.6 km/h 86% 0.0 mm 158 W/m2
15:24 19.7 °C 17.5 °C 1008.5 hPa WSW 3.2 km/h 3.2 km/h 87% 0.0 mm 221 W/m2
15:29 19.7 °C 17.3 °C 1008.5 hPa WNW 1.4 km/h 3.2 km/h 86% 0.0 mm 236 W/m2
15:34 19.7 °C 17.3 °C 1008.5 hPa North 1.4 km/h 4.8 km/h 86% 0.0 mm 192 W/m2
15:39 19.8 °C 17.2 °C 1008.5 hPa Calm     85% 0.0 mm 153 W/m2
15:44 19.9 °C 17.3 °C 1008.5 hPa East 3.2 km/h 3.2 km/h 85% 0.0 mm 188 W/m2
15:49 20 °C 17.4 °C 1008.5 hPa West 1.4 km/h 4.8 km/h 85% 0.0 mm 188 W/m2
15:54 20.1 °C 17.3 °C 1008.8 hPa ENE 1.4 km/h 3.2 km/h 84% 0.0 mm 79 W/m2
16:04 20 °C 17 °C 1008.5 hPa Calm   3.2 km/h 83% 0.0 mm 65 W/m2
16:09 19.9 °C 17.1 °C 1008.8 hPa Calm   1.6 km/h 84% 0.0 mm 79 W/m2
16:14 19.9 °C 17.5 °C 1008.5 hPa South 1.4 km/h 1.6 km/h 86% 0.5 mm 158 W/m2
16:19 19.8 °C 17.4 °C 1008.5 hPa Calm     86% 0.5 mm 125 W/m2
16:24 19.8 °C 17.6 °C 1008.5 hPa Calm     87% 0.5 mm 81 W/m2
16:29 19.7 °C 17.7 °C 1008.5 hPa Calm     88% 0.5 mm 74 W/m2
16:34 19.6 °C 17.7 °C 1008.5 hPa South 1.4 km/h 3.2 km/h 89% 0.8 mm 60 W/m2
16:39 19.6 °C 17.9 °C 1008.5 hPa Calm     90% 0.8 mm 72 W/m2
16:44 19.5 °C 17.8 °C 1008.5 hPa Calm   3.2 km/h 90% 0.8 mm 90 W/m2
16:49 19.4 °C 17.7 °C 1008.5 hPa South 1.4 km/h 3.2 km/h 90% 0.8 mm 155 W/m2
16:54 19.4 °C 17.9 °C 1008.5 hPa Calm     91% 0.8 mm 169 W/m2
16:59 19.4 °C 17.9 °C 1008.5 hPa Calm   3.2 km/h 91% 0.8 mm 186 W/m2
17:04 19.4 °C 17.9 °C 1008.5 hPa SSW 1.4 km/h 3.2 km/h 91% 0.8 mm 113 W/m2
17:09 19.3 °C 17.6 °C 1008.5 hPa Calm   1.6 km/h 90% 0.8 mm 116 W/m2
17:14 19.5 °C 18 °C 1008.5 hPa Calm   1.6 km/h 91% 0.5 mm 146 W/m2
17:19 19.6 °C 18.1 °C 1008.5 hPa Calm     91% 0.2 mm 148 W/m2
17:24 19.5 °C 17.8 °C 1008.5 hPa Calm     90% 0.2 mm 151 W/m2
17:29 19.7 °C 18 °C 1008.5 hPa SW 1.4 km/h 3.2 km/h 90% 0.2 mm 192 W/m2
17:34 19.7 °C 18 °C 1008.5 hPa WSW 1.4 km/h 3.2 km/h 90% 0.0 mm 202 W/m2
17:39 19.8 °C 18.1 °C 1008.5 hPa WSW 1.4 km/h 3.2 km/h 90% 0.0 mm 176 W/m2
17:44 19.8 °C 17.9 °C 1008.5 hPa Calm   1.6 km/h 89% 0.0 mm 144 W/m2
17:49 19.8 °C 17.9 °C 1008.1 hPa Calm     89% 0.0 mm 202 W/m2
17:54 20 °C 18.1 °C 1008.5 hPa Calm     89% 0.0 mm 283 W/m2
17:59 20.2 °C 18.1 °C 1008.1 hPa Calm     88% 0.0 mm 424 W/m2
18:04 20.5 °C 18.1 °C 1008.5 hPa NW 1.4 km/h 3.2 km/h 86% 0.0 mm 251 W/m2
18:09 20.6 °C 18.2 °C 1008.5 hPa Calm     86% 0.0 mm 211 W/m2
18:14 20.7 °C 18.1 °C 1008.5 hPa Calm   3.2 km/h 85% 0.0 mm 118 W/m2
18:19 20.7 °C 18.1 °C 1008.1 hPa WNW 1.4 km/h 3.2 km/h 85% 0.0 mm 130 W/m2
18:24 20.6 °C 18.2 °C 1008.1 hPa Calm     86% 0.0 mm 144 W/m2
18:29 20.7 °C 18.5 °C 1007.8 hPa Calm   3.2 km/h 87% 0.0 mm 137 W/m2
18:34 20.7 °C 18.5 °C 1008.1 hPa Calm     87% 0.0 mm 162 W/m2
18:39 20.6 °C 18.4 °C 1008.1 hPa WNW 1.4 km/h 3.2 km/h 87% 0.0 mm 171 W/m2
18:44 20.4 °C 18.2 °C 1008.1 hPa WNW 1.4 km/h 3.2 km/h 87% 0.0 mm 163 W/m2
18:49 20.4 °C 18.3 °C 1008.1 hPa Calm     88% 0.0 mm 151 W/m2
18:54 20.3 °C 17.9 °C 1007.8 hPa WNW 1.4 km/h 1.6 km/h 86% 0.0 mm 195 W/m2
18:59 20.3 °C 17.7 °C 1007.8 hPa Calm     85% 0.0 mm 186 W/m2
19:04 20.5 °C 18.3 °C 1007.8 hPa Calm     87% 0.0 mm 169 W/m2
19:09 20.5 °C 17.9 °C 1007.8 hPa WNW 1.4 km/h 3.2 km/h 85% 0.0 mm 155 W/m2
19:14 20.5 °C 18.1 °C 1007.8 hPa WNW 3.2 km/h 3.2 km/h 86% 0.0 mm 132 W/m2
19:19 20.4 °C 17.8 °C 1007.8 hPa Calm   3.2 km/h 85% 0.0 mm 137 W/m2
19:24 20.4 °C 18 °C 1007.8 hPa Calm     86% 0.0 mm 149 W/m2
19:29 20.4 °C 18 °C 1008.1 hPa WNW 3.2 km/h 3.2 km/h 86% 0.0 mm 107 W/m2
19:34 20.3 °C 17.7 °C 1008.1 hPa Calm   1.6 km/h 85% 0.0 mm 88 W/m2
19:39 20.3 °C 17.9 °C 1008.1 hPa WNW 3.2 km/h 3.2 km/h 86% 0.0 mm 72 W/m2
19:44 20.2 °C 17.6 °C 1007.8 hPa Calm   4.8 km/h 85% 0.0 mm 62 W/m2
19:49 20.2 °C 17.8 °C 1008.1 hPa Calm   1.6 km/h 86% 0.0 mm 65 W/m2
19:54 20.1 °C 18 °C 1008.1 hPa Calm     88% 0.0 mm 74 W/m2
19:59 20 °C 18 °C 1008.1 hPa Calm     88% 0.0 mm 67 W/m2
20:05 19.9 °C 17.9 °C 1008.1 hPa WNW 1.4 km/h 3.2 km/h 88% 0.0 mm 56 W/m2
20:10 19.8 °C 17.8 °C 1008.5 hPa WNW 3.2 km/h 3.2 km/h 88% 0.0 mm 60 W/m2
20:15 19.6 °C 17.7 °C 1008.5 hPa Calm   1.6 km/h 89% 0.0 mm 69 W/m2
20:20 19.6 °C 17.7 °C 1008.1 hPa Calm     89% 0.0 mm 54 W/m2
20:25 19.5 °C 17.6 °C 1008.5 hPa West 3.2 km/h 4.8 km/h 89% 0.0 mm 39 W/m2
20:30 19.4 °C 17.4 °C 1008.5 hPa West 1.4 km/h 4.8 km/h 88% 0.0 mm 28 W/m2
20:35 19.3 °C 17.3 °C 1008.5 hPa WNW 9.7 km/h 9.7 km/h 88% 0.0 mm 26 W/m2
20:40 19.3 °C 17.4 °C 1008.5 hPa West 3.2 km/h 6.4 km/h 89% 0.0 mm 23 W/m2
20:45 19.2 °C 17.2 °C 1008.5 hPa WNW 1.4 km/h 4.8 km/h 88% 0.0 mm 19 W/m2
20:50 19.1 °C 17.1 °C 1008.5 hPa West 3.2 km/h 6.4 km/h 88% 0.0 mm 19 W/m2
20:55 19.1 °C 17.1 °C 1008.5 hPa West 4.7 km/h 4.8 km/h 88% 0.0 mm 16 W/m2
21:00 19.1 °C 17.2 °C 1008.5 hPa West 3.2 km/h 3.2 km/h 89% 0.0 mm 12 W/m2
21:05 19 °C 17.1 °C 1008.5 hPa West 3.2 km/h 4.8 km/h 89% 0.0 mm 12 W/m2
21:10 18.9 °C 17 °C 1008.5 hPa West 1.4 km/h 4.8 km/h 89% 0.0 mm 14 W/m2
21:15 18.9 °C 17 °C 1008.5 hPa West 1.4 km/h 6.4 km/h 89% 0.0 mm 14 W/m2
21:20 18.9 °C 17 °C 1008.5 hPa West 3.2 km/h 3.2 km/h 89% 0.0 mm 11 W/m2
21:25 18.8 °C 16.9 °C 1008.5 hPa West 3.2 km/h 11.3 km/h 89% 0.0 mm 12 W/m2
21:30 18.9 °C 17 °C 1008.5 hPa WSW 1.4 km/h 6.4 km/h 89% 0.0 mm 16 W/m2
21:35 18.9 °C 17 °C 1008.5 hPa West 1.4 km/h 11.3 km/h 89% 0.0 mm 14 W/m2
21:40 18.9 °C 17 °C 1008.5 hPa WSW 1.4 km/h 4.8 km/h 89% 0.0 mm 7 W/m2
21:45 18.9 °C 17 °C 1008.5 hPa West 1.4 km/h 8 km/h 89% 0.0 mm 0 W/m2
21:50 18.8 °C 16.9 °C 1008.5 hPa West 1.4 km/h 1.6 km/h 89% 0.0 mm 0 W/m2
21:55 18.8 °C 16.9 °C 1008.8 hPa Calm   1.6 km/h 89% 0.0 mm 0 W/m2
22:00 18.8 °C 16.9 °C 1008.8 hPa Calm     89% 0.0 mm 0 W/m2
22:05 18.7 °C 17 °C 1008.8 hPa WSW 1.4 km/h 3.2 km/h 90% 0.0 mm 0 W/m2
22:10 18.7 °C 17 °C 1008.8 hPa West 3.2 km/h 6.4 km/h 90% 0.0 mm 0 W/m2
22:15 18.6 °C 16.9 °C 1008.8 hPa SW 1.4 km/h 4.8 km/h 90% 0.0 mm 0 W/m2
22:20 18.6 °C 16.9 °C 1008.8 hPa WNW 3.2 km/h 4.8 km/h 90% 0.0 mm 0 W/m2
22:25 18.5 °C 16.8 °C 1008.8 hPa Calm   3.2 km/h 90% 0.0 mm 0 W/m2
22:30 18.5 °C 16.7 °C 1008.8 hPa WSW 3.2 km/h 3.2 km/h 89% 0.0 mm 0 W/m2
22:35 18.4 °C 16.6 °C 1008.5 hPa WSW 1.4 km/h 4.8 km/h 89% 0.0 mm 0 W/m2
22:40 18.4 °C 16.6 °C 1008.5 hPa Calm     89% 0.0 mm 0 W/m2
22:45 18.4 °C 16.7 °C 1008.5 hPa WSW 1.4 km/h 3.2 km/h 90% 0.0 mm 0 W/m2
22:50 18.3 °C 16.6 °C 1008.8 hPa Calm     90% 0.0 mm 0 W/m2
22:55 18.2 °C 16.7 °C 1008.8 hPa Calm     91% 0.0 mm 0 W/m2
23:00 18.1 °C 16.6 °C 1008.8 hPa Calm     91% 0.0 mm 0 W/m2
23:05 18 °C 16.5 °C 1008.8 hPa Calm     91% 0.0 mm 0 W/m2
23:10 17.9 °C 16.4 °C 1008.8 hPa Calm     91% 0.0 mm 0 W/m2
23:15 17.8 °C 16.3 °C 1008.8 hPa Calm   3.2 km/h 91% 0.0 mm 0 W/m2
23:20 17.8 °C 16.3 °C 1008.8 hPa Calm   3.2 km/h 91% 0.0 mm 0 W/m2
23:25 17.8 °C 16.3 °C 1008.8 hPa West 3.2 km/h 3.2 km/h 91% 0.0 mm 0 W/m2
23:30 17.9 °C 16.4 °C 1008.8 hPa Calm   3.2 km/h 91% 0.0 mm 0 W/m2
23:35 17.9 °C 16.4 °C 1008.5 hPa West 3.2 km/h 3.2 km/h 91% 0.0 mm 0 W/m2
23:40 17.9 °C 16.4 °C 1008.8 hPa West 3.2 km/h 3.2 km/h 91% 0.0 mm 0 W/m2
23:45 17.9 °C 16.4 °C 1008.8 hPa West 3.2 km/h 4.8 km/h 91% 0.0 mm 0 W/m2
23:50 17.9 °C 16.2 °C 1008.5 hPa Calm   3.2 km/h 90% 0.0 mm 0 W/m2
23:55 17.9 °C 16.2 °C 1008.8 hPa Calm     90% 0.0 mm 0 W/m2
Juneau County Weather
Compliments of Weather Underground - 2 mb